Time;durP1;ratioP1;P1;durP2;ratioP2;P2;SDS_P1;SDS_P2;PMS_P1;PMS_P2;Temp;Humidity;BMP_temperature;BMP_pressure;BME280_temperature;BME280_humidity;BME280_pressure;Samples;Min_cycle;Max_cycle;Signal;HPM_P1;HPM_P2
2023/05/15 00:01:57;;;;;;;5.30;4.57;;;17.60;58.40;;;;;;5004757;28;20445;-82
2023/05/15 00:04:25;;;;;;;5.83;4.90;;;17.70;58.40;;;;;;5052041;28;20450;-80
2023/05/15 00:06:52;;;;;;;5.83;4.40;;;17.80;58.20;;;;;;5016997;28;20470;-82
2023/05/15 00:09:19;;;;;;;5.77;4.40;;;17.80;58.00;;;;;;5018141;28;20822;-83
2023/05/15 00:11:47;;;;;;;5.00;4.30;;;17.90;57.80;;;;;;5019962;28;20458;-80
2023/05/15 00:14:14;;;;;;;5.50;4.50;;;17.90;57.80;;;;;;5008281;28;20495;-80
2023/05/15 00:16:41;;;;;;;5.23;4.70;;;17.90;58.00;;;;;;5026686;28;20488;-81
2023/05/15 00:19:08;;;;;;;6.20;4.30;;;17.90;58.20;;;;;;5019236;28;20456;-80
2023/05/15 00:21:35;;;;;;;7.30;5.47;;;17.90;58.20;;;;;;5034791;28;20468;-82
2023/05/15 00:24:03;;;;;;;5.70;4.77;;;17.80;58.50;;;;;;5033049;28;20540;-83
2023/05/15 00:26:30;;;;;;;7.63;5.40;;;17.80;59.10;;;;;;5053324;28;20481;-81
2023/05/15 00:28:58;;;;;;;6.63;5.50;;;17.80;59.60;;;;;;4999486;28;20966;-79
2023/05/15 00:31:25;;;;;;;9.17;5.73;;;17.80;59.70;;;;;;5051530;28;20477;-79
2023/05/15 00:33:52;;;;;;;7.93;4.90;;;17.80;59.60;;;;;;5025329;28;20487;-82
2023/05/15 00:36:20;;;;;;;9.17;5.50;;;17.90;59.50;;;;;;5035219;28;20531;-80
2023/05/15 00:38:47;;;;;;;6.67;5.60;;;17.90;59.90;;;;;;4999117;28;20441;-83
2023/05/15 00:41:15;;;;;;;6.17;5.00;;;17.80;60.20;;;;;;5017557;28;20826;-81
2023/05/15 00:43:43;;;;;;;7.40;5.20;;;17.80;60.00;;;;;;5021922;28;20452;-81
2023/05/15 00:46:13;;;;;;;7.50;6.00;;;17.80;60.00;;;;;;5009222;28;20451;-82
2023/05/15 00:48:41;;;;;;;6.07;5.20;;;17.80;59.50;;;;;;5031426;28;20485;-81
2023/05/15 00:51:09;;;;;;;5.90;5.30;;;17.80;59.10;;;;;;5008778;28;20475;-82
2023/05/15 00:53:37;;;;;;;5.17;4.60;;;17.80;58.90;;;;;;5015790;28;20448;-81
2023/05/15 00:56:06;;;;;;;5.00;4.50;;;17.80;58.70;;;;;;5048478;28;20557;-82
2023/05/15 00:58:34;;;;;;;6.30;5.70;;;17.70;59.20;;;;;;5014976;28;20447;-81
2023/05/15 01:01:01;;;;;;;7.13;5.23;;;17.70;59.40;;;;;;5043345;28;20477;-82
2023/05/15 01:03:29;;;;;;;7.10;5.97;;;17.70;59.10;;;;;;5021133;28;21174;-82
2023/05/15 01:05:56;;;;;;;10.37;5.77;;;17.80;59.00;;;;;;5018315;28;20441;-82
2023/05/15 01:08:26;;;;;;;8.43;5.30;;;17.80;59.20;;;;;;5038860;28;20492;-81
2023/05/15 01:10:55;;;;;;;9.70;6.80;;;17.80;59.00;;;;;;5029718;28;20469;-82
2023/05/15 01:13:23;;;;;;;9.30;6.43;;;17.80;59.30;;;;;;5021177;28;20974;-82
2023/05/15 01:15:50;;;;;;;8.80;6.17;;;17.80;59.20;;;;;;5000435;28;21024;-82
2023/05/15 01:18:17;;;;;;;7.80;7.00;;;17.80;59.40;;;;;;5046326;28;20444;-81
2023/05/15 01:21:06;;;;;;;9.07;6.30;;;17.80;59.50;;;;;;5016494;28;20564;-83
2023/05/15 01:23:45;;;;;;;31.90;7.50;;;17.70;59.90;;;;;;5030055;28;20460;-80
2023/05/15 01:26:43;;;;;;;11.33;7.73;;;17.60;60.40;;;;;;5050464;28;20519;-81
2023/05/15 01:29:18;;;;;;;76.80;9.80;;;17.60;60.30;;;;;;5021221;28;20453;-82
2023/05/15 01:31:53;;;;;;;15.10;8.17;;;17.20;61.50;;;;;;5040092;28;20823;-83
2023/05/15 01:34:23;;;;;;;36.77;8.10;;;17.20;61.80;;;;;;5000627;28;20444;-81
2023/05/15 01:36:56;;;;;;;13.00;8.27;;;17.10;62.00;;;;;;5020060;28;20526;-83
2023/05/15 01:39:26;;;;;;;13.70;7.43;;;17.20;61.80;;;;;;5039733;28;20449;-81
2023/05/15 01:42:00;;;;;;;18.40;8.87;;;17.10;61.70;;;;;;5032372;28;20461;-83
2023/05/15 01:44:32;;;;;;;13.50;8.17;;;16.70;62.70;;;;;;5014571;28;20821;-80
2023/05/15 01:47:07;;;;;;;23.07;8.73;;;16.60;63.90;;;;;;5025120;28;20461;-82
2023/05/15 01:49:35;;;;;;;12.50;7.70;;;16.80;63.40;;;;;;5018466;28;20522;-83
2023/05/15 01:52:08;;;;;;;17.30;8.40;;;17.00;62.70;;;;;;5023759;28;20533;-79
2023/05/15 01:54:37;;;;;;;15.00;7.90;;;17.00;62.40;;;;;;5007086;28;20459;-80
2023/05/15 01:57:05;;;;;;;14.40;8.57;;;17.00;62.70;;;;;;5034599;28;20453;-81
2023/05/15 01:59:35;;;;;;;12.63;7.50;;;16.90;62.80;;;;;;5006071;28;20875;-81
2023/05/15 02:02:04;;;;;;;14.10;7.27;;;17.00;62.60;;;;;;5023877;28;20457;-80
2023/05/15 02:04:32;;;;;;;11.70;7.13;;;17.00;62.50;;;;;;5041396;28;21155;-82
2023/05/15 02:07:00;;;;;;;13.10;7.70;;;16.80;62.80;;;;;;5007211;28;20474;-81
2023/05/15 02:09:28;;;;;;;14.17;6.63;;;16.70;63.30;;;;;;5008533;28;20461;-81
2023/05/15 02:11:57;;;;;;;13.13;7.77;;;16.60;63.50;;;;;;5018104;28;20563;-80
2023/05/15 02:14:26;;;;;;;14.20;7.80;;;16.50;63.90;;;;;;5005651;28;20489;-81
2023/05/15 02:16:54;;;;;;;32.47;9.10;;;16.70;64.00;;;;;;5015233;28;20448;-81
2023/05/15 02:19:21;;;;;;;22.20;9.10;;;16.60;64.20;;;;;;5012474;28;20441;-83
2023/05/15 02:21:49;;;;;;;19.27;8.07;;;16.50;64.10;;;;;;5040295;28;20461;-83
2023/05/15 02:24:15;;;;;;;87.73;12.90;;;16.60;64.40;;;;;;5017407;28;20485;-83
2023/05/15 02:26:52;;;;;;;20.13;8.20;;;16.70;63.80;;;;;;4999717;28;20450;-81
2023/05/15 02:29:21;;;;;;;26.77;9.00;;;16.90;63.10;;;;;;5032169;28;20455;-81
2023/05/15 02:31:59;;;;;;;16.93;8.30;;;17.00;62.90;;;;;;5030200;28;20458;-83
2023/05/15 02:34:34;;;;;;;55.00;10.23;;;16.80;63.40;;;;;;5045712;28;20934;-80
2023/05/15 02:37:03;;;;;;;20.20;9.73;;;16.60;63.70;;;;;;5004346;28;20845;-81
2023/05/15 02:39:32;;;;;;;13.87;8.80;;;16.80;63.90;;;;;;5029295;28;20470;-83
2023/05/15 02:42:01;;;;;;;21.93;9.80;;;16.60;64.20;;;;;;5032148;28;20445;-82
2023/05/15 02:44:29;;;;;;;30.83;9.90;;;16.70;64.10;;;;;;5029178;28;21536;-81
2023/05/15 02:46:59;;;;;;;16.03;9.40;;;16.70;63.70;;;;;;5030151;28;20463;-81
2023/05/15 02:49:26;;;;;;;12.57;8.40;;;16.70;63.70;;;;;;5012978;28;20481;-81
2023/05/15 02:51:53;;;;;;;22.90;10.17;;;16.70;63.90;;;;;;5006056;28;20448;-79
2023/05/15 02:54:20;;;;;;;30.30;9.40;;;16.80;63.60;;;;;;5018048;28;21001;-80
2023/05/15 02:56:47;;;;;;;14.57;8.87;;;16.80;63.30;;;;;;5007963;28;20871;-81
2023/05/15 02:59:18;;;;;;;14.33;8.30;;;16.70;63.40;;;;;;5039005;28;20449;-83
2023/05/15 03:01:45;;;;;;;17.23;8.77;;;16.80;63.40;;;;;;5020519;28;21061;-82
2023/05/15 03:04:14;;;;;;;24.80;7.93;;;16.90;63.30;;;;;;5015825;28;20817;-82
2023/05/15 03:06:41;;;;;;;13.00;8.30;;;17.00;63.00;;;;;;5009813;28;22389;-81
2023/05/15 03:09:08;;;;;;;18.10;8.60;;;17.00;62.80;;;;;;5009209;28;20500;-82
2023/05/15 03:11:35;;;;;;;11.70;7.33;;;16.80;62.70;;;;;;5013478;28;20499;-81
2023/05/15 03:14:02;;;;;;;12.43;7.10;;;16.70;63.10;;;;;;5034127;28;20480;-82
2023/05/15 03:16:29;;;;;;;39.50;7.87;;;16.70;63.40;;;;;;5015257;28;20447;-80
2023/05/15 03:18:56;;;;;;;15.20;7.57;;;16.40;63.70;;;;;;5019779;28;20563;-80
2023/05/15 03:21:25;;;;;;;37.17;8.53;;;16.30;64.10;;;;;;5015228;28;20472;-81
2023/05/15 03:23:52;;;;;;;25.20;7.50;;;16.40;64.20;;;;;;5011952;28;20463;-83
2023/05/15 03:26:19;;;;;;;74.17;10.47;;;16.40;64.60;;;;;;5019818;28;20457;-80
2023/05/15 03:28:46;;;;;;;22.87;9.00;;;16.30;64.30;;;;;;5025123;28;20476;-83
2023/05/15 03:31:14;;;;;;;16.97;8.20;;;16.20;64.90;;;;;;5054140;28;20473;-80
2023/05/15 03:33:42;;;;;;;25.03;8.70;;;16.20;65.00;;;;;;5024398;28;20480;-79
2023/05/15 03:36:09;;;;;;;13.90;7.40;;;16.20;65.00;;;;;;5020514;28;20449;-80
2023/05/15 03:38:37;;;;;;;14.67;8.33;;;16.20;65.60;;;;;;5033474;28;20539;-82
2023/05/15 03:41:04;;;;;;;30.37;8.50;;;16.40;65.60;;;;;;5018649;28;21067;-82
2023/05/15 03:43:32;;;;;;;32.40;9.53;;;16.60;64.40;;;;;;5024306;28;20480;-83
2023/05/15 03:45:59;;;;;;;29.90;9.40;;;16.20;64.40;;;;;;5025287;28;20459;-82
2023/05/15 03:48:26;;;;;;;15.30;8.30;;;16.00;66.00;;;;;;5051936;28;20567;-83
2023/05/15 03:50:53;;;;;;;13.40;8.87;;;16.30;64.90;;;;;;5018212;28;20522;-83
2023/05/15 03:53:20;;;;;;;12.77;8.47;;;16.50;64.30;;;;;;5015714;28;20453;-81
2023/05/15 03:55:49;;;;;;;20.73;9.10;;;16.70;63.60;;;;;;5017107;28;20459;-82
2023/05/15 03:58:16;;;;;;;30.53;8.80;;;16.80;62.70;;;;;;5024475;28;20497;-81
2023/05/15 04:00:43;;;;;;;12.70;7.97;;;16.70;62.30;;;;;;5027109;28;20476;-82
2023/05/15 04:03:10;;;;;;;22.17;8.37;;;16.60;62.40;;;;;;5022952;28;20489;-83
2023/05/15 04:05:37;;;;;;;23.43;8.20;;;16.60;62.70;;;;;;5050850;28;20484;-83
2023/05/15 04:08:04;;;;;;;19.20;11.40;;;16.30;63.80;;;;;;5006231;28;20468;-80
2023/05/15 04:10:32;;;;;;;24.10;8.13;;;16.30;64.10;;;;;;5016578;28;20471;-80
2023/05/15 04:13:00;;;;;;;34.17;11.13;;;16.20;64.00;;;;;;5050847;28;20452;-81
2023/05/15 04:15:27;;;;;;;17.43;8.50;;;16.30;64.10;;;;;;5029678;28;20444;-81
2023/05/15 04:17:55;;;;;;;13.67;7.93;;;16.20;64.40;;;;;;5036729;28;20498;-81
2023/05/15 04:20:23;;;;;;;21.60;8.80;;;16.20;64.20;;;;;;5034256;28;20555;-81
2023/05/15 04:22:51;;;;;;;51.40;8.97;;;16.10;64.70;;;;;;4999490;28;20507;-83
2023/05/15 04:25:19;;;;;;;11.13;7.33;;;16.00;65.00;;;;;;5037380;28;20485;-83
2023/05/15 04:27:46;;;;;;;63.40;11.87;;;16.00;65.60;;;;;;5032622;28;20474;-82
2023/05/15 04:30:15;;;;;;;44.40;9.60;;;15.80;65.80;;;;;;5025578;28;21035;-81
2023/05/15 04:32:42;;;;;;;44.00;10.93;;;15.90;65.60;;;;;;5005412;28;20450;-81
2023/05/15 04:35:12;;;;;;;49.33;10.10;;;15.80;65.60;;;;;;5024317;28;20470;-81
2023/05/15 04:37:39;;;;;;;16.10;8.07;;;15.80;65.30;;;;;;5031857;28;20440;-81
2023/05/15 04:40:08;;;;;;;14.57;7.33;;;15.70;66.20;;;;;;5024810;28;20539;-82
2023/05/15 04:42:35;;;;;;;20.60;7.33;;;15.80;66.20;;;;;;5023490;28;20496;-81
2023/05/15 04:45:02;;;;;;;13.93;7.50;;;15.90;65.00;;;;;;5002866;28;20708;-83
2023/05/15 04:47:32;;;;;;;25.67;8.00;;;16.10;65.20;;;;;;5024942;28;20966;-83
2023/05/15 04:49:59;;;;;;;14.53;8.10;;;16.30;64.40;;;;;;5040706;28;20487;-82
2023/05/15 04:52:26;;;;;;;14.50;7.97;;;16.30;64.10;;;;;;5051934;28;20471;-81
2023/05/15 04:54:54;;;;;;;20.93;7.70;;;16.30;64.30;;;;;;5001322;28;20544;-82
2023/05/15 04:57:21;;;;;;;90.57;11.67;;;16.50;63.70;;;;;;5002864;28;21020;-83
2023/05/15 04:59:49;;;;;;;10.80;7.40;;;16.50;63.00;;;;;;5006503;28;20500;-82
2023/05/15 05:02:16;;;;;;;17.93;7.73;;;16.40;63.40;;;;;;5035471;28;20464;-82
2023/05/15 05:04:44;;;;;;;11.43;7.90;;;16.40;63.70;;;;;;5031076;28;20453;-82
2023/05/15 05:07:11;;;;;;;16.00;8.17;;;16.50;64.00;;;;;;5024027;28;20487;-81
2023/05/15 05:09:39;;;;;;;27.40;8.23;;;16.30;63.60;;;;;;5022654;28;21146;-81
2023/05/15 05:12:08;;;;;;;19.67;6.90;;;16.20;63.90;;;;;;5020868;28;20440;-79
2023/05/15 05:14:35;;;;;;;25.07;7.23;;;16.10;64.30;;;;;;5024441;28;20457;-80
2023/05/15 05:17:02;;;;;;;96.70;11.27;;;16.00;64.70;;;;;;5034012;28;20465;-79
2023/05/15 05:19:29;;;;;;;10.47;7.50;;;16.00;64.50;;;;;;5032113;28;20453;-81
2023/05/15 05:22:00;;;;;;;19.20;8.63;;;15.80;65.40;;;;;;5032025;28;20863;-81
2023/05/15 05:24:28;;;;;;;35.23;8.03;;;16.00;65.60;;;;;;5032270;28;20459;-81
2023/05/15 05:26:56;;;;;;;11.40;7.30;;;15.80;64.90;;;;;;5023225;28;20970;-82
2023/05/15 05:29:23;;;;;;;19.60;9.30;;;15.50;65.70;;;;;;5050240;28;20587;-82
2023/05/15 05:31:50;;;;;;;72.87;11.37;;;15.50;67.00;;;;;;5002065;28;20467;-81
2023/05/15 05:34:18;;;;;;;18.00;7.47;;;15.50;66.70;;;;;;5023516;28;20446;-80
2023/05/15 05:36:45;;;;;;;11.83;7.10;;;15.50;66.30;;;;;;5023398;28;21477;-80
2023/05/15 05:39:14;;;;;;;12.47;7.37;;;15.70;66.50;;;;;;5020215;28;21262;-81
2023/05/15 05:41:41;;;;;;;12.93;7.10;;;16.00;65.90;;;;;;5032554;28;20539;-82
2023/05/15 05:44:08;;;;;;;8.90;6.90;;;16.10;65.00;;;;;;5024918;28;20444;-80
2023/05/15 05:46:35;;;;;;;10.30;7.37;;;16.10;65.00;;;;;;5017404;28;20813;-80
2023/05/15 05:49:02;;;;;;;14.33;6.40;;;16.20;64.40;;;;;;5021910;28;20903;-81
2023/05/15 05:51:30;;;;;;;10.73;7.20;;;16.00;64.60;;;;;;5006566;28;20597;-80
2023/05/15 05:53:57;;;;;;;9.47;7.57;;;16.10;65.00;;;;;;5024341;28;20491;-83
2023/05/15 05:56:25;;;;;;;12.20;7.40;;;16.10;65.20;;;;;;5019426;28;20487;-83
2023/05/15 05:58:52;;;;;;;8.97;6.67;;;16.30;64.90;;;;;;5017016;28;20545;-81
2023/05/15 06:01:20;;;;;;;10.73;7.27;;;16.30;64.90;;;;;;5021732;28;20540;-82
2023/05/15 06:03:47;;;;;;;9.77;7.03;;;16.20;64.60;;;;;;5017119;28;20455;-82
2023/05/15 06:06:14;;;;;;;8.73;6.33;;;16.30;64.90;;;;;;5017606;28;20999;-83
2023/05/15 06:08:41;;;;;;;9.90;7.33;;;16.30;65.10;;;;;;5015318;28;20487;-82
2023/05/15 06:11:08;;;;;;;10.60;7.60;;;16.20;65.10;;;;;;5029428;28;20563;-84
2023/05/15 06:13:36;;;;;;;9.80;7.77;;;16.30;65.10;;;;;;5020804;28;20460;-82
2023/05/15 06:16:03;;;;;;;10.63;8.17;;;16.40;65.40;;;;;;5005423;28;20504;-83
2023/05/15 06:18:30;;;;;;;9.80;7.10;;;16.80;64.50;;;;;;5024757;28;20480;-80
2023/05/15 06:20:59;;;;;;;9.07;6.73;;;17.00;63.30;;;;;;5039056;28;20896;-82
2023/05/15 06:23:26;;;;;;;10.10;7.20;;;17.00;63.90;;;;;;5051605;28;21122;-81
2023/05/15 06:25:53;;;;;;;10.10;7.60;;;16.90;63.10;;;;;;5005884;28;20452;-81
2023/05/15 06:28:20;;;;;;;10.63;7.30;;;16.80;64.20;;;;;;5031393;28;20469;-81
2023/05/15 06:30:48;;;;;;;8.30;6.27;;;16.90;64.40;;;;;;5051474;28;20468;-80
2023/05/15 06:33:15;;;;;;;8.10;6.40;;;17.00;64.50;;;;;;5019865;28;20453;-81
2023/05/15 06:35:42;;;;;;;8.90;6.70;;;17.20;63.10;;;;;;5006725;28;20544;-82
2023/05/15 06:38:09;;;;;;;7.00;6.17;;;17.50;63.70;;;;;;5017614;28;20457;-83
2023/05/15 06:40:36;;;;;;;7.80;5.97;;;17.60;62.80;;;;;;5008479;28;20880;-81
2023/05/15 06:43:03;;;;;;;6.70;6.10;;;17.50;62.10;;;;;;5005017;28;20551;-82
2023/05/15 06:45:30;;;;;;;8.73;6.07;;;17.30;62.50;;;;;;5043271;28;20441;-80
2023/05/15 06:47:59;;;;;;;7.60;5.93;;;17.30;62.80;;;;;;5004599;28;20459;-82
2023/05/15 06:50:26;;;;;;;8.50;6.00;;;17.50;63.20;;;;;;5039810;28;20460;-81
2023/05/15 06:52:53;;;;;;;7.80;6.30;;;17.50;63.30;;;;;;5023691;28;20442;-82
2023/05/15 06:55:21;;;;;;;7.40;5.13;;;17.60;62.70;;;;;;5054500;28;20456;-81
2023/05/15 06:57:48;;;;;;;10.97;6.67;;;17.70;63.10;;;;;;5032607;28;20468;-82
2023/05/15 07:00:15;;;;;;;8.70;5.60;;;17.90;63.10;;;;;;5036047;28;20941;-81
2023/05/15 07:02:43;;;;;;;8.03;6.20;;;18.10;62.50;;;;;;5033463;28;20460;-82
2023/05/15 07:05:12;;;;;;;5.73;5.23;;;18.20;61.70;;;;;;5035503;28;20536;-82
2023/05/15 07:07:39;;;;;;;7.23;5.87;;;18.30;62.30;;;;;;5036483;28;20448;-79
2023/05/15 07:10:07;;;;;;;7.70;6.10;;;18.40;61.40;;;;;;5051888;28;22160;-82
2023/05/15 07:12:34;;;;;;;7.50;5.53;;;18.60;61.40;;;;;;5025315;28;20547;-83
2023/05/15 07:15:01;;;;;;;6.73;6.03;;;18.60;61.40;;;;;;5053772;28;20448;-81
2023/05/15 07:17:28;;;;;;;5.90;5.27;;;18.60;61.20;;;;;;5018621;28;20445;-82
2023/05/15 07:19:55;;;;;;;6.40;5.80;;;18.50;61.30;;;;;;5042837;28;20460;-82
2023/05/15 07:22:23;;;;;;;7.23;5.80;;;18.50;61.80;;;;;;5037618;28;20567;-82
2023/05/15 07:24:51;;;;;;;7.47;6.20;;;18.40;62.20;;;;;;5049977;28;20450;-81
2023/05/15 07:27:18;;;;;;;7.50;6.30;;;18.80;61.80;;;;;;5037758;28;20472;-84
2023/05/15 07:29:45;;;;;;;6.20;5.60;;;18.90;61.60;;;;;;5019609;28;20565;-81
2023/05/15 07:32:12;;;;;;;7.33;4.93;;;18.90;60.70;;;;;;5052617;28;20445;-83
2023/05/15 07:34:40;;;;;;;6.40;5.73;;;19.10;60.80;;;;;;5044329;28;20472;-81
2023/05/15 07:37:07;;;;;;;6.47;5.40;;;19.40;59.60;;;;;;5033074;28;20824;-81
2023/05/15 07:39:35;;;;;;;5.70;5.20;;;19.80;59.30;;;;;;5022172;28;20892;-83
2023/05/15 07:42:02;;;;;;;6.30;5.33;;;20.00;57.80;;;;;;5034027;28;20444;-80
2023/05/15 07:44:29;;;;;;;7.83;5.63;;;20.10;57.30;;;;;;5004127;28;20469;-80
2023/05/15 07:46:56;;;;;;;7.17;5.93;;;20.30;57.20;;;;;;5035069;28;20457;-82
2023/05/15 07:49:23;;;;;;;8.17;5.83;;;20.30;56.50;;;;;;5053781;28;21636;-83
2023/05/15 07:51:50;;;;;;;5.07;4.50;;;20.40;56.90;;;;;;5017696;28;20448;-81
2023/05/15 07:54:17;;;;;;;5.83;5.33;;;20.40;57.20;;;;;;5028057;28;20530;-81
2023/05/15 07:56:45;;;;;;;5.30;4.80;;;20.40;56.80;;;;;;5019200;28;20461;-83
2023/05/15 07:59:13;;;;;;;6.87;5.67;;;20.40;56.40;;;;;;5027975;28;20508;-82
2023/05/15 08:01:39;;;;;;;5.83;5.40;;;20.60;56.50;;;;;;5030894;28;20825;-82
2023/05/15 08:04:08;;;;;;;5.93;5.27;;;20.60;56.00;;;;;;5003680;28;21407;-82
2023/05/15 08:06:36;;;;;;;5.27;4.83;;;20.70;55.60;;;;;;5036430;28;20536;-82
2023/05/15 08:09:04;;;;;;;5.57;5.07;;;20.80;55.70;;;;;;5015420;28;20532;-81
2023/05/15 08:11:31;;;;;;;5.87;5.10;;;20.90;55.70;;;;;;5027820;28;20468;-81
2023/05/15 08:13:59;;;;;;;6.83;5.63;;;21.20;55.70;;;;;;5008207;28;20464;-83
2023/05/15 08:16:26;;;;;;;5.83;5.27;;;21.20;55.00;;;;;;5026888;28;20618;-83
2023/05/15 08:18:57;;;;;;;5.63;5.13;;;21.50;55.50;;;;;;5031366;28;20525;-80
2023/05/15 08:21:24;;;;;;;6.87;5.40;;;21.50;55.10;;;;;;5052036;28;20880;-83
2023/05/15 08:23:51;;;;;;;5.10;4.60;;;21.50;54.90;;;;;;5035119;28;20495;-83
2023/05/15 08:26:18;;;;;;;5.70;4.87;;;21.60;54.50;;;;;;5008804;28;20462;-83
2023/05/15 08:28:45;;;;;;;6.23;4.80;;;21.80;54.30;;;;;;5008285;28;20455;-81
2023/05/15 08:31:13;;;;;;;4.83;4.43;;;22.00;53.60;;;;;;5012349;28;20466;-83
2023/05/15 08:33:40;;;;;;;7.17;5.17;;;21.70;54.30;;;;;;5020412;28;20461;-80
2023/05/15 08:36:08;;;;;;;7.07;5.13;;;21.80;53.50;;;;;;5041033;28;20904;-81
2023/05/15 08:38:35;;;;;;;7.70;5.20;;;22.00;52.30;;;;;;5017974;28;20543;-82
2023/05/15 08:41:07;;;;;;;6.30;5.70;;;21.90;51.40;;;;;;5019184;28;20518;-82
2023/05/15 08:43:37;;;;;;;7.70;4.93;;;22.00;50.80;;;;;;5026722;28;20472;-82
2023/05/15 08:46:06;;;;;;;5.77;5.27;;;22.00;51.90;;;;;;5032414;28;20801;-83
2023/05/15 08:48:38;;;;;;;5.13;4.67;;;22.20;51.90;;;;;;5050761;28;20819;-82
2023/05/15 08:51:09;;;;;;;9.40;5.60;;;22.50;52.20;;;;;;5016009;28;20476;-83
2023/05/15 08:53:36;;;;;;;5.10;4.70;;;22.70;50.90;;;;;;5042083;28;20457;-83
2023/05/15 08:56:04;;;;;;;6.87;5.00;;;22.90;51.30;;;;;;5040924;28;20458;-84
2023/05/15 08:58:32;;;;;;;6.53;4.97;;;23.00;49.20;;;;;;5010554;28;20448;-83
2023/05/15 09:01:01;;;;;;;6.00;5.00;;;23.00;49.30;;;;;;5022724;28;20544;-82
2023/05/15 09:03:28;;;;;;;5.63;5.03;;;22.70;49.10;;;;;;5011367;28;20511;-85
2023/05/15 09:05:56;;;;;;;5.40;5.00;;;22.80;49.30;;;;;;5013826;28;20438;-80
2023/05/15 09:08:25;;;;;;;5.23;4.70;;;23.00;50.00;;;;;;5031035;28;20908;-82
2023/05/15 09:10:54;;;;;;;5.50;5.00;;;23.00;48.20;;;;;;5005384;28;20985;-82
2023/05/15 09:13:21;;;;;;;6.73;5.67;;;23.30;48.60;;;;;;5025823;28;20460;-84
2023/05/15 09:15:48;;;;;;;4.90;4.40;;;23.50;48.40;;;;;;5016916;28;20449;-83
2023/05/15 09:18:15;;;;;;;4.90;4.40;;;23.40;46.10;;;;;;5031532;28;20468;-82
2023/05/15 09:20:42;;;;;;;5.60;5.13;;;23.60;45.70;;;;;;5017422;28;20472;-84
2023/05/15 09:23:24;;;;;;;6.33;4.60;;;23.60;46.80;;;;;;5019444;28;20455;-83
2023/05/15 09:25:54;;;;;;;4.70;4.40;;;23.40;47.00;;;;;;5031170;28;20448;-83
2023/05/15 09:28:29;;;;;;;5.73;5.23;;;23.70;46.90;;;;;;5031784;28;20449;-83
2023/05/15 09:31:01;;;;;;;7.80;5.27;;;24.00;45.90;;;;;;5014115;28;20905;-81
2023/05/15 09:33:30;;;;;;;5.03;4.63;;;24.30;45.40;;;;;;5014103;28;20449;-83
2023/05/15 09:35:57;;;;;;;4.87;4.47;;;24.30;44.60;;;;;;5028625;28;20458;-84
2023/05/15 09:38:26;;;;;;;6.13;5.53;;;24.20;43.90;;;;;;5013669;28;20505;-81
2023/05/15 09:41:01;;;;;;;12.73;5.03;;;24.10;42.70;;;;;;5047196;28;20492;-82
2023/05/15 09:43:29;;;;;;;5.40;4.83;;;24.00;43.80;;;;;;5002105;28;20476;-82
2023/05/15 09:45:56;;;;;;;4.23;3.93;;;23.90;44.10;;;;;;5014994;28;20437;-81
2023/05/15 09:48:24;;;;;;;6.53;4.67;;;23.80;43.40;;;;;;5018619;28;20535;-83
2023/05/15 09:50:51;;;;;;;5.47;4.97;;;23.80;44.20;;;;;;5019616;28;20745;-80
2023/05/15 09:53:18;;;;;;;6.20;4.30;;;23.80;44.50;;;;;;5032859;28;20452;-81
2023/05/15 09:55:48;;;;;;;5.30;4.83;;;23.90;43.60;;;;;;5051275;28;20453;-83
2023/05/15 09:58:17;;;;;;;5.30;4.90;;;24.20;42.50;;;;;;5024778;28;20979;-83
2023/05/15 10:00:46;;;;;;;6.13;4.60;;;24.70;40.80;;;;;;5015939;28;21282;-84
2023/05/15 10:03:14;;;;;;;5.03;4.67;;;25.10;41.30;;;;;;4999720;28;20484;-83
2023/05/15 10:05:41;;;;;;;6.27;4.73;;;25.10;36.60;;;;;;5032376;28;20482;-81
2023/05/15 10:08:09;;;;;;;5.27;4.50;;;24.60;39.30;;;;;;5030846;28;20447;-81
2023/05/15 10:10:36;;;;;;;4.90;4.40;;;24.40;39.10;;;;;;5013877;28;20484;-83
2023/05/15 10:13:06;;;;;;;4.60;4.20;;;24.20;38.10;;;;;;5020934;28;20520;-82
2023/05/15 10:15:34;;;;;;;5.97;5.47;;;24.00;40.40;;;;;;5025766;28;20536;-80
2023/05/15 10:18:03;;;;;;;8.17;5.70;;;24.10;42.50;;;;;;5048773;28;20440;-82
2023/05/15 10:20:31;;;;;;;5.80;4.60;;;24.00;41.70;;;;;;5019020;28;20469;-81
2023/05/15 10:22:59;;;;;;;5.67;5.10;;;23.30;42.80;;;;;;5031912;28;20451;-83
2023/05/15 10:25:33;;;;;;;6.73;6.07;;;22.90;44.00;;;;;;5024293;28;20468;-81
2023/05/15 10:28:00;;;;;;;6.30;5.80;;;22.90;45.90;;;;;;5012193;28;20445;-80
2023/05/15 10:30:28;;;;;;;7.60;4.73;;;23.00;48.20;;;;;;5026193;28;20466;-82
2023/05/15 10:32:56;;;;;;;7.43;5.47;;;22.90;46.10;;;;;;5017899;28;20467;-81
2023/05/15 10:35:23;;;;;;;5.30;4.30;;;22.90;46.90;;;;;;5034457;28;20450;-81
2023/05/15 10:37:50;;;;;;;6.57;5.03;;;22.80;45.70;;;;;;5017932;28;20461;-80
2023/05/15 10:40:17;;;;;;;5.40;5.00;;;22.60;45.50;;;;;;5028760;28;20544;-82
2023/05/15 10:42:46;;;;;;;7.23;5.80;;;22.30;45.40;;;;;;5050276;28;20515;-81
2023/05/15 10:45:13;;;;;;;6.17;5.50;;;22.10;46.40;;;;;;5009364;28;22337;-82
2023/05/15 10:47:43;;;;;;;9.97;6.97;;;21.90;45.50;;;;;;5041933;28;20527;-83
2023/05/15 10:50:13;;;;;;;6.47;5.80;;;21.70;49.20;;;;;;5011381;28;20565;-82
2023/05/15 10:52:40;;;;;;;16.70;6.43;;;21.40;47.90;;;;;;5023269;28;20452;-83
2023/05/15 10:55:09;;;;;;;7.60;6.80;;;21.40;51.20;;;;;;5022471;28;20484;-82
2023/05/15 10:57:37;;;;;;;9.33;7.73;;;21.40;49.40;;;;;;5019120;28;20557;-81
2023/05/15 11:00:23;;;;;;;6.57;5.87;;;21.20;53.90;;;;;;5032459;28;20592;-81
2023/05/15 11:02:55;;;;;;;7.50;6.80;;;20.90;52.20;;;;;;5033241;28;21374;-84
2023/05/15 11:05:23;;;;;;;7.73;6.23;;;21.00;55.30;;;;;;4991990;28;20546;-81
2023/05/15 11:08:24;;;;;;;7.40;6.70;;;21.10;55.00;;;;;;5013713;28;20440;-81
2023/05/15 11:10:52;;;;;;;5.77;4.40;;;21.20;54.70;;;;;;5023918;28;20503;-84
2023/05/15 11:13:19;;;;;;;5.77;5.07;;;21.10;52.10;;;;;;5019676;28;20473;-83
2023/05/15 11:15:47;;;;;;;5.87;5.27;;;21.10;51.80;;;;;;5022669;28;20471;-81
2023/05/15 11:18:16;;;;;;;6.37;5.77;;;21.30;53.80;;;;;;5020656;28;20876;-81
2023/05/15 11:21:08;;;;;;;6.63;5.30;;;21.40;54.40;;;;;;5033048;28;20559;-81
2023/05/15 11:23:40;;;;;;;7.20;5.80;;;21.60;55.00;;;;;;5046756;28;20456;-83
2023/05/15 11:26:07;;;;;;;7.03;6.43;;;21.30;53.10;;;;;;5031532;28;20476;-83
2023/05/15 11:28:43;;;;;;;7.37;6.67;;;21.00;54.80;;;;;;5007889;28;20458;-82
2023/05/15 11:31:10;;;;;;;8.27;5.90;;;20.50;56.10;;;;;;5037615;28;21009;-82
2023/05/15 11:33:39;;;;;;;7.43;6.40;;;20.10;53.90;;;;;;5016581;28;20528;-81
2023/05/15 11:36:08;;;;;;;9.70;5.90;;;19.80;56.10;;;;;;5016469;28;20458;-82
2023/05/15 11:38:39;;;;;;;7.10;6.43;;;19.90;56.60;;;;;;5016273;28;20521;-81
2023/05/15 11:41:20;;;;;;;6.40;5.37;;;19.70;58.10;;;;;;4999612;28;21096;-81
2023/05/15 11:43:48;;;;;;;5.27;4.67;;;19.70;54.20;;;;;;5034654;28;20527;-81
2023/05/15 11:46:16;;;;;;;6.10;5.50;;;20.00;56.70;;;;;;5006315;28;21044;-81
2023/05/15 11:48:46;;;;;;;6.47;5.07;;;20.20;56.40;;;;;;5032877;28;20477;-82
2023/05/15 11:51:18;;;;;;;4.50;4.20;;;20.40;56.10;;;;;;5047186;28;20485;-80
2023/05/15 11:53:46;;;;;;;5.60;5.17;;;20.70;55.70;;;;;;5031872;28;20454;-82
2023/05/15 11:56:17;;;;;;;5.17;4.67;;;20.80;57.90;;;;;;5022656;28;20540;-82
2023/05/15 11:58:44;;;;;;;4.70;4.30;;;20.60;55.30;;;;;;5016817;28;20448;-82
2023/05/15 12:01:12;;;;;;;5.00;4.60;;;20.90;58.00;;;;;;5015929;28;20836;-81
2023/05/15 12:03:39;;;;;;;4.43;4.03;;;21.20;56.80;;;;;;5031682;28;20499;-81
2023/05/15 12:06:06;;;;;;;5.47;4.10;;;21.20;53.50;;;;;;5039097;28;20453;-79
2023/05/15 12:08:36;;;;;;;4.43;4.10;;;21.50;53.80;;;;;;5014381;28;20477;-79
2023/05/15 12:11:04;;;;;;;4.47;3.80;;;21.70;53.50;;;;;;5002651;28;20462;-80
2023/05/15 12:13:32;;;;;;;7.07;3.20;;;22.00;51.80;;;;;;5034665;28;20452;-83
2023/05/15 12:16:00;;;;;;;4.10;2.90;;;22.40;51.30;;;;;;5049267;28;20498;-82
2023/05/15 12:18:27;;;;;;;4.50;3.10;;;22.70;48.70;;;;;;5019636;28;20547;-82
2023/05/15 12:20:55;;;;;;;3.27;3.07;;;23.00;47.60;;;;;;5013822;28;20475;-82
2023/05/15 12:23:23;;;;;;;6.20;4.13;;;23.10;46.20;;;;;;5010090;28;20533;-82
2023/05/15 12:25:57;;;;;;;3.30;3.10;;;23.10;47.50;;;;;;5019127;28;20449;-80
2023/05/15 12:28:24;;;;;;;5.20;4.80;;;23.40;48.00;;;;;;5035266;28;20843;-81
2023/05/15 12:30:51;;;;;;;4.10;3.70;;;23.60;44.90;;;;;;5033374;28;20564;-79
2023/05/15 12:33:18;;;;;;;4.07;3.53;;;23.80;44.70;;;;;;5006889;28;20458;-82
2023/05/15 12:35:53;;;;;;;5.57;5.07;;;23.70;43.50;;;;;;5022090;28;20475;-83
2023/05/15 12:38:21;;;;;;;6.70;5.20;;;23.80;49.10;;;;;;5042890;28;20523;-81
2023/05/15 12:40:56;;;;;;;5.13;4.73;;;24.20;47.30;;;;;;5033032;28;20468;-81
2023/05/15 12:43:24;;;;;;;7.43;3.87;;;24.40;47.20;;;;;;5053005;28;20457;-81
2023/05/15 12:45:56;;;;;;;4.60;4.20;;;24.70;48.50;;;;;;5038728;28;21018;-79
2023/05/15 12:48:23;;;;;;;8.27;7.47;;;25.00;47.60;;;;;;5011610;28;20494;-81
2023/05/15 12:50:50;;;;;;;4.90;4.40;;;24.80;45.60;;;;;;5024342;28;20482;-82